American Century — WDD2876 — position and weather

sailwx.info

Track history (hours):
 
Tides and Currents Weather Stations Pressure Air Temp Water Temp Dewpoint Dewpoint Depression Visibility Wind Speed Wind Dir Waves Ship Positions

American Century

Owner: American Steamship Company, Williamsville, NY. More information available from US FCC via Universal Licensing System and Coast Guard Vessel Documentation Center.

Last reported at 2015-Jul-31 00:00 UTC. Time now 2015-Jul-31 09:21 UTC.
Position N 43°18' W 082°24'.

Length 305 m; draft 8.7 m.

Type: Other ship. MMSI: 367121010.

Wind from 280 at 17 knots

Waves 1.0 meters (3 feet)

Barometer 1009.8 mb
Air temperature 24.9 ° C
Visibility: greater than 10.8 NM

Date/timePositionNaut miles runAvg speedWind from/ knotsBaromVisibWave heightAir tempDewpointWater temp
2015-Jul-31 00:00N 43°18' W 082°24'16211.8 280 / 171009.810.8 1.024.9
2015-Jul-30 10:17N 45°49' W 083°44'912.1
2015-Jul-30 09:33N 45°56' W 083°53'10 9.6
2015-Jul-30 08:33N 46°04' W 084°00'31 5.2
2015-Jul-30 02:33N 46°30' W 084°26'27711.3
2015-Jul-29 02:00N 47°06' W 091°06'1812.8 210 / 101005.710.8 0.523.8
2015-Jul-29 00:33N 46°57' W 091°30'1212.0
2015-Jul-28 23:34N 46°52' W 091°46'1211.8
2015-Jul-28 22:33N 46°48' W 092°01'5 4.7
2015-Jul-28 21:33N 46°45' W 092°07'0 0.0
2015-Jul-28 20:33N 46°45' W 092°07'0 0.0
2015-Jul-28 19:33N 46°45' W 092°07'0 0.0
2015-Jul-28 18:33N 46°45' W 092°07'0 0.0
2015-Jul-28 17:33N 46°45' W 092°07'0 0.0
2015-Jul-28 16:33N 46°45' W 092°07'0 0.0
2015-Jul-28 15:33N 46°45' W 092°07'0 0.0
2015-Jul-28 14:33N 46°45' W 092°07'0 0.0
2015-Jul-28 13:33N 46°45' W 092°07'0 0.0
2015-Jul-28 12:33N 46°45' W 092°07'0 0.0
2015-Jul-28 11:33N 46°45' W 092°07'1 1.1
2015-Jul-28 10:33N 46°45' W 092°06'0 0.4
2015-Jul-28 09:32N 46°46' W 092°06'0 0.3
2015-Jul-28 08:33N 46°46' W 092°06'9 8.7
2015-Jul-28 07:33N 46°50' W 091°55'1312.9
2015-Jul-28 06:34N 46°55' W 091°37'7413.3
2015-Jul-28 01:00N 47°18' W 089°54'1212.2 100 / 111011.810.8 0.521.1
2015-Jul-28 00:00N 47°18' W 089°36'12812.3 040 / 71011.810.8 24.9
2015-Jul-27 13:33N 47°11' W 086°28'2613.0
2015-Jul-27 11:33N 47°02' W 085°52'1413.0
2015-Jul-27 10:26N 46°57' W 085°32'1212.9
2015-Jul-27 09:29N 46°52' W 085°16'1512.5
2015-Jul-27 08:20N 46°47' W 084°56'1012.7
2015-Jul-27 07:31N 46°38' W 084°48'21 7.0
2015-Jul-27 04:33N 46°30' W 084°21'5 2.5
2015-Jul-27 02:30N 46°26' W 084°16'8 8.4
2015-Jul-27 01:33N 46°20' W 084°10'7 6.9
2015-Jul-27 00:33N 46°13' W 084°07'1010.4
2015-Jul-26 23:33N 46°04' W 083°60'1010.4
2015-Jul-26 22:33N 45°55' W 083°53'9013.7
2015-Jul-26 16:00N 44°54' W 082°18'18 9.2 350 / 141013.510.8 0.519.4
2015-Jul-26 14:00N 44°36' W 082°12'3618.0 010 / 131013.210.8 0.519.9
2015-Jul-26 12:00N 44°00' W 082°12'7 7.4 320 / 101011.810.8 0.520.5
2015-Jul-26 11:00N 43°54' W 082°18'   160 / 21011.810.8 0.520.5 3.3
2015-Jul-23 19:33N 46°03' W 083°58'31 5.2
2015-Jul-23 13:33N 46°30' W 084°22'4 4.0
2015-Jul-23 12:33N 46°29' W 084°27'12 8.8
2015-Jul-23 11:10N 46°35' W 084°43'12712.5
2015-Jul-23 01:00N 47°30' W 087°30'14811.9 220 / 91010.810.8 15.5
2015-Jul-22 12:33N 47°05' W 091°05'1312.3
2015-Jul-22 11:31N 47°00' W 091°22'1212.3
2015-Jul-22 10:32N 46°54' W 091°37'1212.2
2015-Jul-22 09:33N 46°49' W 091°53'9 9.4
2015-Jul-22 08:33N 46°46' W 092°06'2 1.7
2015-Jul-22 07:33N 46°45' W 092°07'0 0.0
2015-Jul-22 06:33N 46°45' W 092°07'0 0.0
2015-Jul-22 05:33N 46°45' W 092°07'0 0.0
2015-Jul-22 04:33N 46°45' W 092°07'0 0.0
2015-Jul-22 03:33N 46°45' W 092°07'0 0.0
2015-Jul-22 02:33N 46°45' W 092°07'0 0.0
2015-Jul-22 01:33N 46°45' W 092°07'0 0.0
2015-Jul-22 00:33N 46°45' W 092°07'0 0.0
2015-Jul-21 23:33N 46°45' W 092°07'0 0.0
2015-Jul-21 22:33N 46°45' W 092°07'1 1.2
2015-Jul-21 21:33N 46°46' W 092°06'0 0.0
2015-Jul-21 20:34N 46°46' W 092°06'2 1.8
2015-Jul-21 19:33N 46°47' W 092°04'1211.7
2015-Jul-21 18:33N 46°52' W 091°49'1313.3
2015-Jul-21 17:33N 46°57' W 091°31'7713.8
2015-Jul-21 12:00N 47°18' W 089°42'13912.6 310 / 161008.410.8 0.514.4
2015-Jul-21 01:00N 47°06' W 086°18'   300 / 121003.010.8 0.5 8.8
Track history (hours):
 
Tides and Currents Weather Stations Pressure Air Temp Water Temp Dewpoint Dewpoint Depression Visibility Wind Speed Wind Dir Waves Ship Positions

American Century

Owner: American Steamship Company, Williamsville, NY. More information available from US FCC via Universal Licensing System and Coast Guard Vessel Documentation Center.

Last reported at 2015-Jul-31 00:00 UTC. Time now 2015-Jul-31 09:21 UTC.
Position N 43°18' W 082°24'.

Length 305 m; draft 8.7 m.

Type: Other ship. MMSI: 367121010.

Wind from 280 at 17 knots

Waves 1.0 meters (3 feet)

Barometer 1009.8 mb
Air temperature 24.9 ° C
Visibility: greater than 10.8 NM

Date/timePositionNaut miles runAvg speedWind from/ knotsBaromVisibWave heightAir tempDewpointWater temp
2015-Jul-31 00:00N 43°18' W 082°24'16211.8 280 / 171009.810.8 1.024.9
2015-Jul-30 10:17N 45°49' W 083°44'912.1
2015-Jul-30 09:33N 45°56' W 083°53'10 9.6
2015-Jul-30 08:33N 46°04' W 084°00'31 5.2
2015-Jul-30 02:33N 46°30' W 084°26'27711.3
2015-Jul-29 02:00N 47°06' W 091°06'1812.8 210 / 101005.710.8 0.523.8
2015-Jul-29 00:33N 46°57' W 091°30'1212.0
2015-Jul-28 23:34N 46°52' W 091°46'1211.8
2015-Jul-28 22:33N 46°48' W 092°01'5 4.7
2015-Jul-28 21:33N 46°45' W 092°07'0 0.0
2015-Jul-28 20:33N 46°45' W 092°07'0 0.0
2015-Jul-28 19:33N 46°45' W 092°07'0 0.0
2015-Jul-28 18:33N 46°45' W 092°07'0 0.0
2015-Jul-28 17:33N 46°45' W 092°07'0 0.0
2015-Jul-28 16:33N 46°45' W 092°07'0 0.0
2015-Jul-28 15:33N 46°45' W 092°07'0 0.0
2015-Jul-28 14:33N 46°45' W 092°07'0 0.0
2015-Jul-28 13:33N 46°45' W 092°07'0 0.0
2015-Jul-28 12:33N 46°45' W 092°07'0 0.0
2015-Jul-28 11:33N 46°45' W 092°07'1 1.1
2015-Jul-28 10:33N 46°45' W 092°06'0 0.4
2015-Jul-28 09:32N 46°46' W 092°06'0 0.3
2015-Jul-28 08:33N 46°46' W 092°06'9 8.7
2015-Jul-28 07:33N 46°50' W 091°55'1312.9
2015-Jul-28 06:34N 46°55' W 091°37'7413.3
2015-Jul-28 01:00N 47°18' W 089°54'1212.2 100 / 111011.810.8 0.521.1
2015-Jul-28 00:00N 47°18' W 089°36'12812.3 040 / 71011.810.8 24.9
2015-Jul-27 13:33N 47°11' W 086°28'2613.0
2015-Jul-27 11:33N 47°02' W 085°52'1413.0
2015-Jul-27 10:26N 46°57' W 085°32'1212.9
2015-Jul-27 09:29N 46°52' W 085°16'1512.5
2015-Jul-27 08:20N 46°47' W 084°56'1012.7
2015-Jul-27 07:31N 46°38' W 084°48'21 7.0
2015-Jul-27 04:33N 46°30' W 084°21'5 2.5
2015-Jul-27 02:30N 46°26' W 084°16'8 8.4
2015-Jul-27 01:33N 46°20' W 084°10'7 6.9
2015-Jul-27 00:33N 46°13' W 084°07'1010.4
2015-Jul-26 23:33N 46°04' W 083°60'1010.4
2015-Jul-26 22:33N 45°55' W 083°53'9013.7
2015-Jul-26 16:00N 44°54' W 082°18'18 9.2 350 / 141013.510.8 0.519.4
2015-Jul-26 14:00N 44°36' W 082°12'3618.0 010 / 131013.210.8 0.519.9
2015-Jul-26 12:00N 44°00' W 082°12'7 7.4 320 / 101011.810.8 0.520.5
2015-Jul-26 11:00N 43°54' W 082°18'   160 / 21011.810.8 0.520.5 3.3
2015-Jul-23 19:33N 46°03' W 083°58'31 5.2
2015-Jul-23 13:33N 46°30' W 084°22'4 4.0
2015-Jul-23 12:33N 46°29' W 084°27'12 8.8
2015-Jul-23 11:10N 46°35' W 084°43'12712.5
2015-Jul-23 01:00N 47°30' W 087°30'14811.9 220 / 91010.810.8 15.5
2015-Jul-22 12:33N 47°05' W 091°05'1312.3
2015-Jul-22 11:31N 47°00' W 091°22'1212.3
2015-Jul-22 10:32N 46°54' W 091°37'1212.2
2015-Jul-22 09:33N 46°49' W 091°53'9 9.4
2015-Jul-22 08:33N 46°46' W 092°06'2 1.7
2015-Jul-22 07:33N 46°45' W 092°07'0 0.0
2015-Jul-22 06:33N 46°45' W 092°07'0 0.0
2015-Jul-22 05:33N 46°45' W 092°07'0 0.0
2015-Jul-22 04:33N 46°45' W 092°07'0 0.0
2015-Jul-22 03:33N 46°45' W 092°07'0 0.0
2015-Jul-22 02:33N 46°45' W 092°07'0 0.0
2015-Jul-22 01:33N 46°45' W 092°07'0 0.0
2015-Jul-22 00:33N 46°45' W 092°07'0 0.0
2015-Jul-21 23:33N 46°45' W 092°07'0 0.0
2015-Jul-21 22:33N 46°45' W 092°07'1 1.2
2015-Jul-21 21:33N 46°46' W 092°06'0 0.0
2015-Jul-21 20:34N 46°46' W 092°06'2 1.8
2015-Jul-21 19:33N 46°47' W 092°04'1211.7
2015-Jul-21 18:33N 46°52' W 091°49'1313.3
2015-Jul-21 17:33N 46°57' W 091°31'7713.8
2015-Jul-21 12:00N 47°18' W 089°42'13912.6 310 / 161008.410.8 0.514.4
2015-Jul-21 01:00N 47°06' W 086°18'   300 / 121003.010.8 0.5 8.8

Dump ship's entire track history